Time;durP1;ratioP1;P1;durP2;ratioP2;P2;SDS_P1;SDS_P2;PMS_P1;PMS_P2;Temp;Humidity;BMP_temperature;BMP_pressure;BME280_temperature;BME280_humidity;BME280_pressure;Samples;Min_cycle;Max_cycle;Signal;HPM_P1;HPM_P2
2022/05/31 00:01:02;;;;;;;;;;;;;;;-142.75;100.00;77389.25;5012156;28;19930;-64
2022/05/31 00:03:27;;;;;;;;;;;;;;;-142.75;100.00;77389.25;5012098;28;20019;-64
2022/05/31 00:05:52;;;;;;;;;;;;;;;-142.75;100.00;77385.31;5012307;28;20303;-64
2022/05/31 00:08:18;;;;;;;;;;;;;;;-142.75;100.00;77389.25;5012025;28;19925;-65
2022/05/31 00:10:43;;;;;;;;;;;;;;;-142.75;100.00;77389.25;5012010;28;19925;-65
2022/05/31 00:13:08;;;;;;;;;;;;;;;-142.75;100.00;77389.25;5012269;28;19943;-64
2022/05/31 00:15:34;;;;;;;;;;;;;;;-142.75;100.00;77389.25;5035745;23;19918;-64
2022/05/31 00:17:59;;;;;;;;;;;;;;;-142.75;100.00;77389.25;5008410;28;20409;-69
2022/05/31 00:20:25;;;;;;;;;;;;;;;-142.75;100.00;77391.22;5029435;28;19917;-69
2022/05/31 00:22:50;;;;;;;;;;;;;;;-142.75;100.00;77385.31;5031742;28;20371;-67
2022/05/31 00:25:16;;;;;;;;;;;;;;;-142.75;100.00;77383.34;5031483;28;19925;-69
2022/05/31 00:27:42;;;;;;;;;;;;;;;-142.75;100.00;77385.31;5032042;28;19921;-69
2022/05/31 00:30:07;;;;;;;;;;;;;;;-142.75;100.00;77389.25;5013778;28;20011;-69
2022/05/31 00:32:35;;;;;;;;;;;;;;;-142.75;100.00;77387.28;5031199;28;19928;-69
2022/05/31 00:35:03;;;;;;;;;;;;;;;-142.75;100.00;77397.13;5031597;28;19917;-69
2022/05/31 00:37:28;;;;;;;;;;;;;;;-142.75;100.00;77401.06;5031374;28;19921;-69
2022/05/31 00:39:54;;;;;;;;;;;;;;;-142.75;100.00;77406.97;5031081;28;20008;-68
2022/05/31 00:42:21;;;;;;;;;;;;;;;-142.75;100.00;77408.94;5031110;28;20028;-65
2022/05/31 00:44:47;;;;;;;;;;;;;;;-142.75;100.00;77418.78;5013359;28;19917;-70
2022/05/31 00:47:14;;;;;;;;;;;;;;;-142.75;100.00;77422.72;5031093;28;20698;-69
2022/05/31 00:49:43;;;;;;;;;;;;;;;-142.75;100.00;77414.84;5030840;28;19917;-68
2022/05/31 00:52:21;;;;;;;;;;;;;;;-142.75;100.00;77420.75;5011434;28;19918;-69
2022/05/31 00:54:50;;;;;;;;;;;;;;;-142.75;100.00;77428.63;5011310;28;19918;-69
2022/05/31 00:57:16;;;;;;;;;;;;;;;-142.75;100.00;77428.63;4994194;28;20284;-68
2022/05/31 00:59:43;;;;;;;;;;;;;;;-142.75;100.00;77432.56;4993521;28;19937;-69
2022/05/31 01:02:09;;;;;;;;;;;;;;;-142.75;100.00;77428.63;5011477;28;19925;-69
2022/05/31 01:04:38;;;;;;;;;;;;;;;-142.75;100.00;77432.56;4993641;28;20314;-69
2022/05/31 01:07:04;;;;;;;;;;;;;;;-142.75;100.00;77438.47;4993602;28;19956;-68
2022/05/31 01:09:30;;;;;;;;;;;;;;;-142.75;100.00;77428.63;5025890;28;19963;-69
2022/05/31 01:11:56;;;;;;;;;;;;;;;-142.75;100.00;77424.69;5030846;28;19925;-69
2022/05/31 01:14:21;;;;;;;;;;;;;;;-142.75;100.00;77434.53;5031018;28;19917;-69
2022/05/31 01:16:56;;;;;;;;;;;;;;;-142.75;100.00;77432.56;5030551;28;20401;-70
2022/05/31 01:22:05;;;;;;;;;;;;;;;-142.75;100.00;77422.72;5009938;28;19963;-69
2022/05/31 01:24:36;;;;;;;;;;;;;;;-142.75;100.00;77430.59;4993344;28;19957;-68
2022/05/31 01:27:07;;;;;;;;;;;;;;;-142.75;100.00;77436.50;4993781;28;19917;-68
2022/05/31 01:29:34;;;;;;;;;;;;;;;-142.75;100.00;77428.63;5010472;28;19975;-68
2022/05/31 01:32:01;;;;;;;;;;;;;;;-142.75;100.00;77434.53;5010958;28;19918;-68
2022/05/31 01:34:35;;;;;;;;;;;;;;;-142.75;100.00;77440.44;5010587;28;19953;-69
2022/05/31 01:37:00;;;;;;;;;;;;;;;-142.75;100.00;77444.38;5010555;28;19924;-69
2022/05/31 01:39:32;;;;;;;;;;;;;;;-142.75;100.00;77440.44;5010459;28;20408;-67
2022/05/31 01:42:07;;;;;;;;;;;;;;;-142.75;100.00;77436.50;4993048;28;20024;-68
2022/05/31 01:44:35;;;;;;;;;;;;;;;-142.75;100.00;77434.53;5010734;28;19928;-68
2022/05/31 01:47:01;;;;;;;;;;;;;;;-142.75;100.00;77432.56;5010707;28;19963;-68
2022/05/31 01:49:30;;;;;;;;;;;;;;;-142.75;100.00;77440.44;5014435;28;19922;-69
2022/05/31 01:51:56;;;;;;;;;;;;;;;-142.75;100.00;77452.25;5014906;28;20361;-69
2022/05/31 01:54:21;;;;;;;;;;;;;;;-142.75;100.00;77448.34;4997339;28;19917;-68
2022/05/31 01:56:48;;;;;;;;;;;;;;;-142.75;100.00;77442.41;5014091;28;19924;-69
2022/05/31 01:59:14;;;;;;;;;;;;;;;-142.75;100.00;77446.34;5014365;28;19926;-69
2022/05/31 02:01:40;;;;;;;;;;;;;;;-142.75;100.00;77440.44;5014723;28;20371;-68
2022/05/31 02:04:06;;;;;;;;;;;;;;;-142.75;100.00;77440.44;5014580;28;19999;-68
2022/05/31 02:06:34;;;;;;;;;;;;;;;-142.75;100.00;77440.44;5018707;28;19960;-69
2022/05/31 02:09:00;;;;;;;;;;;;;;;-142.75;100.00;77438.47;5014478;28;19918;-66
2022/05/31 02:11:26;;;;;;;;;;;;;;;-142.75;100.00;77436.50;4997068;28;20338;-69
2022/05/31 02:13:51;;;;;;;;;;;;;;;-142.75;100.00;77440.44;5014510;28;19918;-68
2022/05/31 02:16:17;;;;;;;;;;;;;;;-142.75;100.00;77444.38;5014053;28;19921;-69
2022/05/31 02:21:26;;;;;;;;;;;;;;;-142.75;100.00;77444.38;5014514;28;20020;-69
2022/05/31 02:23:51;;;;;;;;;;;;;;;-142.75;100.00;77440.44;5014345;28;20000;-68
2022/05/31 02:26:16;;;;;;;;;;;;;;;-142.75;100.00;77444.38;5016603;28;19964;-68
2022/05/31 02:28:41;;;;;;;;;;;;;;;-142.75;100.00;77444.38;5033861;28;19921;-68
2022/05/31 02:31:07;;;;;;;;;;;;;;;-142.75;100.00;77442.41;5033555;28;19917;-68
2022/05/31 02:33:32;;;;;;;;;;;;;;;-142.75;100.00;77440.44;5033812;28;19921;-68
2022/05/31 02:35:57;;;;;;;;;;;;;;;-142.75;100.00;77436.50;5031185;28;20427;-69
2022/05/31 02:38:22;;;;;;;;;;;;;;;-142.75;100.00;77436.50;5020649;28;19921;-68
2022/05/31 02:40:48;;;;;;;;;;;;;;;-142.75;100.00;77436.50;5033792;28;20307;-69
2022/05/31 02:43:13;;;;;;;;;;;;;;;-142.75;100.00;77428.63;5033494;28;19917;-68
2022/05/31 02:45:38;;;;;;;;;;;;;;;-142.75;100.00;77432.56;5033430;28;19935;-69
2022/05/31 02:48:04;;;;;;;;;;;;;;;-142.75;100.00;77424.69;5032962;28;19924;-69
2022/05/31 02:50:29;;;;;;;;;;;;;;;-142.75;100.00;77428.63;5033454;28;19964;-68
2022/05/31 02:52:54;;;;;;;;;;;;;;;-142.75;100.00;77428.63;5033361;28;19925;-69
2022/05/31 02:55:19;;;;;;;;;;;;;;;-142.75;100.00;77416.81;5033313;28;19924;-69
2022/05/31 02:57:44;;;;;;;;;;;;;;;-142.75;100.00;77414.84;5033491;28;20008;-68
2022/05/31 03:00:10;;;;;;;;;;;;;;;-142.75;100.00;77416.81;5031701;28;19925;-68
2022/05/31 03:02:36;;;;;;;;;;;;;;;-142.75;100.00;77408.94;5015575;28;20386;-69
2022/05/31 03:05:02;;;;;;;;;;;;;;;-142.75;100.00;77412.88;5017136;28;19924;-69
2022/05/31 03:07:27;;;;;;;;;;;;;;;-142.75;100.00;77408.94;5013198;28;19917;-68
2022/05/31 03:09:52;;;;;;;;;;;;;;;-142.75;100.00;77401.06;5013206;28;19921;-69
2022/05/31 03:12:19;;;;;;;;;;;;;;;-142.75;100.00;77401.06;4995733;28;19925;-69
2022/05/31 03:14:53;;;;;;;;;;;;;;;-142.75;100.00;77401.06;4995589;28;20379;-68
2022/05/31 03:17:25;;;;;;;;;;;;;;;-142.75;100.00;77410.91;4995526;28;19964;-68
2022/05/31 03:19:54;;;;;;;;;;;;;;;-142.75;100.00;77408.94;5013126;28;19947;-68
2022/05/31 03:22:24;;;;;;;;;;;;;;;-142.75;100.00;77416.81;4995678;28;19944;-69
2022/05/31 03:25:11;;;;;;;;;;;;;;;-142.75;100.00;77420.75;5024086;28;19924;-68
2022/05/31 03:27:36;;;;;;;;;;;;;;;-142.75;100.00;77416.81;5033362;28;19952;-69
2022/05/31 03:30:02;;;;;;;;;;;;;;;-142.75;100.00;77422.72;5032808;28;19961;-69
2022/05/31 03:32:28;;;;;;;;;;;;;;;-142.75;100.00;77420.75;5031375;28;19917;-67
2022/05/31 03:34:54;;;;;;;;;;;;;;;-142.75;100.00;77426.66;5013131;28;20398;-68
2022/05/31 03:37:19;;;;;;;;;;;;;;;-142.75;100.00;77438.47;5012678;28;19917;-69
2022/05/31 03:39:44;;;;;;;;;;;;;;;-142.75;100.00;77426.66;5031971;28;20012;-69
2022/05/31 03:42:10;;;;;;;;;;;;;;;-142.75;100.00;77424.69;5032590;28;19917;-68
2022/05/31 03:44:35;;;;;;;;;;;;;;;-142.75;100.00;77420.75;5014650;28;19921;-69
2022/05/31 03:47:01;;;;;;;;;;;;;;;-142.75;100.00;77424.69;5032335;28;19917;-69
2022/05/31 03:49:26;;;;;;;;;;;;;;;-142.75;100.00;77412.88;5014389;28;20311;-68
2022/05/31 03:51:52;;;;;;;;;;;;;;;-142.75;100.00;77418.78;5003680;28;19926;-68
2022/05/31 03:54:17;;;;;;;;;;;;;;;-142.75;100.00;77422.72;5003596;28;19975;-69
2022/05/31 03:56:42;;;;;;;;;;;;;;;-142.75;100.00;77418.78;5027342;28;19921;-68
2022/05/31 03:59:08;;;;;;;;;;;;;;;-142.75;100.00;77420.75;5031874;28;19929;-69
2022/05/31 04:01:33;;;;;;;;;;;;;;;-142.75;100.00;77412.88;5019594;28;19917;-69
2022/05/31 04:03:59;;;;;;;;;;;;;;;-142.75;100.00;77412.88;5012491;28;20307;-69
2022/05/31 04:06:24;;;;;;;;;;;;;;;-142.75;100.00;77405.00;5017856;28;19983;-69
2022/05/31 04:08:49;;;;;;;;;;;;;;;-142.75;100.00;77397.13;5031590;28;19949;-69
2022/05/31 04:11:14;;;;;;;;;;;;;;;-142.75;100.00;77393.19;5031613;28;19921;-69
2022/05/31 04:13:40;;;;;;;;;;;;;;;-142.75;100.00;77393.19;5031863;28;20383;-69
2022/05/31 04:16:11;;;;;;;;;;;;;;;-142.75;100.00;77389.25;5013926;28;19967;-69
2022/05/31 04:18:37;;;;;;;;;;;;;;;-142.75;100.00;77385.31;5031296;28;20015;-69
2022/05/31 04:21:03;;;;;;;;;;;;;;;-142.75;100.00;77377.44;5031939;28;19927;-68
2022/05/31 04:26:13;;;;;;;;;;;;;;;-142.75;100.00;77371.53;5032052;28;20429;-68
2022/05/31 04:28:38;;;;;;;;;;;;;;;-142.75;100.00;77369.56;5031858;28;19917;-69
2022/05/31 04:31:04;;;;;;;;;;;;;;;-142.75;100.00;77369.56;5031610;28;19925;-68
2022/05/31 04:33:29;;;;;;;;;;;;;;;-142.75;100.00;77367.59;5013593;28;19917;-69
2022/05/31 04:36:02;;;;;;;;;;;;;;;-142.75;100.00;77367.59;5031312;28;19925;-68
2022/05/31 04:38:28;;;;;;;;;;;;;;;-142.75;100.00;77363.66;5031159;28;19927;-68
2022/05/31 04:40:53;;;;;;;;;;;;;;;-142.75;100.00;77357.75;5031300;28;19917;-69
2022/05/31 04:43:18;;;;;;;;;;;;;;;-142.75;100.00;77351.84;5031416;28;20058;-69
2022/05/31 04:45:43;;;;;;;;;;;;;;;-142.75;100.00;77340.03;5031407;28;19917;-69
2022/05/31 04:48:08;;;;;;;;;;;;;;;-142.75;100.00;77347.91;5021425;28;19925;-69
2022/05/31 04:50:34;;;;;;;;;;;;;;;-142.75;100.00;77338.06;5011432;28;19956;-68
2022/05/31 04:52:59;;;;;;;;;;;;;;;-142.75;100.00;77342.00;5011377;28;19924;-67
2022/05/31 04:55:24;;;;;;;;;;;;;;;-142.75;100.00;77353.81;5011555;28;20337;-69
2022/05/31 04:57:50;;;;;;;;;;;;;;;-142.75;100.00;77357.75;5011731;28;19922;-69
2022/05/31 05:00:15;;;;;;;;;;;;;;;-142.75;100.00;77351.84;5011313;28;20338;-70
2022/05/31 05:02:40;;;;;;;;;;;;;;;-142.75;100.00;77357.75;4993764;28;19971;-68
2022/05/31 05:05:07;;;;;;;;;;;;;;;-142.75;100.00;77342.00;5030806;28;20402;-69
2022/05/31 05:07:32;;;;;;;;;;;;;;;-142.75;100.00;77336.09;5030850;28;19948;-69
2022/05/31 05:09:57;;;;;;;;;;;;;;;-142.75;100.00;77338.06;5030647;28;20331;-69
2022/05/31 05:12:22;;;;;;;;;;;;;;;-142.75;100.00;77342.00;5030821;28;19917;-69
2022/05/31 05:14:47;;;;;;;;;;;;;;;-142.75;100.00;77342.00;5030579;28;19923;-68
2022/05/31 05:17:13;;;;;;;;;;;;;;;-142.75;100.00;77340.03;5030662;28;19923;-69
2022/05/31 05:19:38;;;;;;;;;;;;;;;-142.75;100.00;77330.19;5024426;28;20399;-70
2022/05/31 05:22:03;;;;;;;;;;;;;;;-142.75;100.00;77326.25;5010340;28;19924;-69
2022/05/31 05:24:28;;;;;;;;;;;;;;;-142.75;100.00;77324.28;5011001;28;19917;-69
2022/05/31 05:26:53;;;;;;;;;;;;;;;-142.75;100.00;77310.50;5011480;28;19918;-69
2022/05/31 05:32:06;;;;;;;;;;;;;;;-142.75;100.00;77304.59;5010993;28;19944;-68
2022/05/31 05:34:31;;;;;;;;;;;;;;;-142.75;100.00;77290.81;5010858;28;19918;-68
2022/05/31 05:36:57;;;;;;;;;;;;;;;-142.75;100.00;77290.81;4993341;28;19925;-68
2022/05/31 05:39:22;;;;;;;;;;;;;;;-142.75;100.00;77280.97;5010212;28;19926;-68
2022/05/31 05:41:48;;;;;;;;;;;;;;;-142.75;100.00;77267.19;5021207;28;20280;-69
2022/05/31 05:44:13;;;;;;;;;;;;;;;-142.75;100.00;77261.28;5030626;28;20282;-69
2022/05/31 05:46:38;;;;;;;;;;;;;;;-142.75;100.00;77253.41;5017110;28;19917;-66
2022/05/31 05:49:04;;;;;;;;;;;;;;;-142.75;100.00;77241.59;5009745;28;20367;-68
2022/05/31 05:51:31;;;;;;;;;;;;;;;-142.75;100.00;77227.81;4992532;28;19948;-69
2022/05/31 05:53:57;;;;;;;;;;;;;;;-142.75;100.00;77219.94;4992450;28;20284;-70
2022/05/31 05:56:23;;;;;;;;;;;;;;;-142.75;100.00;77212.06;5010093;28;20016;-68
2022/05/31 05:58:48;;;;;;;;;;;;;;;-142.75;100.00;77200.25;5010311;28;19964;-68
2022/05/31 06:01:13;;;;;;;;;;;;;;;-142.75;100.00;77186.47;5013523;28;19923;-68
2022/05/31 06:03:53;;;;;;;;;;;;;;;-142.75;100.00;77176.63;5030405;28;20283;-69
2022/05/31 06:06:20;;;;;;;;;;;;;;;-142.75;100.00;77176.63;5030736;28;19917;-68
2022/05/31 06:08:45;;;;;;;;;;;;;;;-142.75;100.00;77180.56;5012871;28;19959;-70
2022/05/31 06:11:14;;;;;;;;;;;;;;;-142.75;100.00;77176.63;5030901;28;19917;-68
2022/05/31 06:13:41;;;;;;;;;;;;;;;-142.75;100.00;77168.75;5030969;28;19925;-69
2022/05/31 06:16:08;;;;;;;;;;;;;;;-142.75;100.00;77153.00;5053688;23;19917;-64
2022/05/31 06:18:50;;;;;;;;;;;;;;;-142.75;100.00;77141.19;5008806;28;20366;-65
2022/05/31 06:21:17;;;;;;;;;;;;;;;-142.75;100.00;77129.38;5029966;28;20394;-66
2022/05/31 06:23:42;;;;;;;;;;;;;;;-142.75;100.00;77107.72;5030731;28;19928;-66
2022/05/31 06:26:08;;;;;;;;;;;;;;;-142.75;100.00;77086.06;5030582;28;19917;-65
2022/05/31 06:28:33;;;;;;;;;;;;;;;-142.75;100.00;77074.25;5030513;28;19917;-65
2022/05/31 06:30:58;;;;;;;;;;;;;;;-142.75;100.00;77058.50;5030534;28;19917;-66
2022/05/31 06:33:23;;;;;;;;;;;;;;;-142.75;100.00;77044.72;5031368;28;19917;-65
2022/05/31 06:35:48;;;;;;;;;;;;;;;-142.75;100.00;77034.88;5016696;28;20590;-65
2022/05/31 06:38:16;;;;;;;;;;;;;;;-142.75;100.00;77017.16;5033727;28;19956;-65
2022/05/31 06:40:41;;;;;;;;;;;;;;;-142.75;100.00;77003.38;5034260;28;19925;-65
2022/05/31 06:43:06;;;;;;;;;;;;;;;-142.75;100.00;77003.38;5034203;28;19917;-65
2022/05/31 06:45:31;;;;;;;;;;;;;;;-142.75;100.00;76993.53;5034140;28;19921;-65
2022/05/31 06:47:57;;;;;;;;;;;;;;;-142.75;100.00;76979.75;5033698;28;20019;-65
2022/05/31 06:50:22;;;;;;;;;;;;;;;-142.75;100.00;76960.06;5034180;28;19921;-66
2022/05/31 06:58:15;;;;;;;;;;;;;;;-142.75;100.00;76932.50;5013814;28;20306;-65
2022/05/31 07:00:40;;;;;;;;;;;;;;;-142.75;100.00;76914.78;5014096;28;20007;-65
2022/05/31 07:03:05;;;;;;;;;;;;;;;-142.75;100.00;76889.19;5014177;28;19922;-65
2022/05/31 07:05:30;;;;;;;;;;;;;;;-142.75;100.00;76851.78;5014176;28;19925;-65
2022/05/31 07:07:56;;;;;;;;;;;;;;;-142.75;100.00;76818.31;5013613;28;19918;-66
2022/05/31 07:10:22;;;;;;;;;;;;;;;-142.75;100.00;76778.97;5013917;28;20387;-65
2022/05/31 07:12:48;;;;;;;;;;;;;;;-142.75;100.00;76743.53;5013947;28;19992;-65
2022/05/31 07:15:13;;;;;;;;;;;;;;;-142.75;100.00;76712.03;5013962;28;20422;-65
2022/05/31 07:17:39;;;;;;;;;;;;;;;-142.75;100.00;76678.56;5013503;28;19921;-65
2022/05/31 07:20:05;;;;;;;;;;;;;;;-142.75;100.00;76652.97;5013572;28;19921;-65
2022/05/31 07:22:30;;;;;;;;;;;;;;;-142.75;100.00;76641.16;5013679;28;20295;-65
2022/05/31 07:24:55;;;;;;;;;;;;;;;-142.75;100.00;76607.69;4996063;28;19924;-65
2022/05/31 07:27:21;;;;;;;;;;;;;;;-142.75;100.00;76566.34;5013660;28;19929;-65
2022/05/31 07:29:46;;;;;;;;;;;;;;;-142.75;100.00;76570.28;5013366;28;20307;-65
2022/05/31 07:32:11;;;;;;;;;;;;;;;-142.75;100.00;76562.41;5013732;28;19960;-65
2022/05/31 07:34:36;;;;;;;;;;;;;;;-142.75;100.00;76554.53;5013559;28;19925;-65
2022/05/31 07:37:01;;;;;;;;;;;;;;;-142.75;100.00;76560.44;5013388;28;20338;-66
2022/05/31 07:39:27;;;;;;;;;;;;;;;-142.75;100.00;76580.13;5012941;28;19979;-65
2022/05/31 07:41:54;;;;;;;;;;;;;;;-142.75;100.00;76599.81;5013387;28;20410;-66
2022/05/31 07:44:20;;;;;;;;;;;;;;;-142.75;100.00;76617.53;5013453;28;19917;-65
2022/05/31 07:46:45;;;;;;;;;;;;;;;-142.75;100.00;76617.53;5012881;28;20363;-65
2022/05/31 07:49:10;;;;;;;;;;;;;;;-142.75;100.00;76603.75;5013074;28;20299;-65
2022/05/31 07:51:35;;;;;;;;;;;;;;;-142.75;100.00;76591.94;5013159;28;19917;-65
2022/05/31 07:54:00;;;;;;;;;;;;;;;-142.75;100.00;76574.22;5013173;28;19924;-66
2022/05/31 07:56:27;;;;;;;;;;;;;;;-142.75;100.00;76556.50;4995424;28;20327;-66
2022/05/31 07:58:52;;;;;;;;;;;;;;;-142.75;100.00;76550.59;5012792;28;19925;-65
2022/05/31 08:01:19;;;;;;;;;;;;;;;-142.75;100.00;76538.78;5013201;28;20016;-65
2022/05/31 08:03:45;;;;;;;;;;;;;;;-142.75;100.00;76536.84;5012983;28;19933;-66
2022/05/31 08:06:14;;;;;;;;;;;;;;;-142.75;100.00;76554.53;5012743;28;19917;-66
2022/05/31 08:08:40;;;;;;;;;;;;;;;-142.75;100.00;76552.56;5012509;28;19955;-65
2022/05/31 08:11:07;;;;;;;;;;;;;;;-142.75;100.00;76546.66;5013062;28;19917;-65
2022/05/31 08:13:32;;;;;;;;;;;;;;;-142.75;100.00;76550.59;5012667;28;20403;-66
2022/05/31 08:15:58;;;;;;;;;;;;;;;-142.75;100.00;76542.72;5012813;28;19917;-65
2022/05/31 08:18:23;;;;;;;;;;;;;;;-142.75;100.00;76530.91;5012190;28;19929;-66
2022/05/31 08:20:48;;;;;;;;;;;;;;;-142.75;100.00;76501.41;5012667;28;19925;-65
2022/05/31 08:23:14;;;;;;;;;;;;;;;-142.75;100.00;76489.59;5012596;28;19925;-65
2022/05/31 08:25:39;;;;;;;;;;;;;;;-142.75;100.00;76491.56;5012503;28;19949;-65
2022/05/31 08:28:04;;;;;;;;;;;;;;;-142.75;100.00;76436.44;5012231;28;19979;-66
2022/05/31 08:30:30;;;;;;;;;;;;;;;-142.75;100.00;76402.97;5012487;28;19918;-66
2022/05/31 08:32:55;;;;;;;;;;;;;;;-142.75;100.00;76353.78;5012542;28;20428;-65
2022/05/31 08:35:21;;;;;;;;;;;;;;;-142.75;100.00;76292.75;4994729;28;19918;-65
2022/05/31 08:37:46;;;;;;;;;;;;;;;-142.75;100.00;76292.75;5012019;28;19972;-65
2022/05/31 08:40:12;;;;;;;;;;;;;;;-142.75;100.00;76267.16;5012222;28;19917;-65
2022/05/31 08:42:43;;;;;;;;;;;;;;;-142.75;85.99;76249.44;5012251;28;19918;-66
2022/05/31 08:45:14;;;;;;;;;;;;;;;-142.75;86.77;76253.38;5012284;28;19918;-65
2022/05/31 08:47:46;;;;;;;;;;;;;;;-142.75;94.76;76227.78;5011883;28;20367;-65
2022/05/31 08:53:16;;;;;;;;;;;;;;;-142.75;77.17;76143.16;5012502;28;19929;-65
2022/05/31 08:58:43;;;;;;;;;;;;;;;-142.75;72.71;76119.53;5011668;28;20005;-65
2022/05/31 09:01:10;;;;;;;;;;;;;;;-142.75;67.35;76086.06;5012022;28;19921;-65
2022/05/31 09:03:44;;;;;;;;;;;;;;;-142.75;65.38;76099.84;5011908;28;20395;-66
2022/05/31 09:06:12;;;;;;;;;;;;;;;-142.75;67.93;76101.81;5011839;28;19949;-65
2022/05/31 09:08:42;;;;;;;;;;;;;;;-142.75;72.72;76109.69;5011570;28;19917;-65
2022/05/31 09:11:21;;;;;;;;;;;;;;;-142.75;69.78;76090.00;5011747;28;19917;-65
2022/05/31 09:13:57;;;;;;;;;;;;;;;-142.75;62.93;76103.78;5011800;28;20502;-66
2022/05/31 09:16:33;;;;;;;;;;;;;;;-142.75;66.26;76070.34;5011660;28;19925;-65
2022/05/31 09:19:00;;;;;;;;;;;;;;;-142.75;64.81;76056.56;5011378;28;19960;-66
2022/05/31 09:21:41;;;;;;;;;;;;;;;-142.75;64.16;76074.25;5011664;28;20350;-66
2022/05/31 09:24:14;;;;;;;;;;;;;;;-142.75;64.20;76027.03;5011702;28;19917;-65
2022/05/31 09:26:40;;;;;;;;;;;;;;;-142.75;62.69;75999.47;5011564;28;20379;-66
2022/05/31 09:29:14;;;;;;;;;;;;;;;-142.75;63.99;75967.97;5011306;28;20001;-65
2022/05/31 09:31:48;;;;;;;;;;;;;;;-142.75;62.03;75952.25;5011597;28;19917;-66
2022/05/31 09:34:37;;;;;;;;;;;;;;;-142.75;58.88;76036.88;5011471;28;19917;-64
2022/05/31 09:37:03;;;;;;;;;;;;;;;-142.75;61.03;76007.34;5011149;28;20524;-65
2022/05/31 09:39:28;;;;;;;;;;;;;;;-142.75;62.64;75958.16;5011132;28;20331;-65
2022/05/31 09:42:00;;;;;;;;;;;;;;;-142.75;61.81;75932.56;4993876;28;19917;-65
2022/05/31 09:44:31;;;;;;;;;;;;;;;-142.75;60.36;75932.56;5011562;28;20340;-65
2022/05/31 09:47:00;;;;;;;;;;;;;;;-142.75;63.64;75916.81;5011279;28;20380;-65
2022/05/31 09:49:36;;;;;;;;;;;;;;;-142.75;59.77;75952.25;5011136;28;19924;-65
2022/05/31 09:52:01;;;;;;;;;;;;;;;-142.75;62.30;75981.75;5011471;28;19918;-65
2022/05/31 09:57:14;;;;;;;;;;;;;;;-142.75;60.67;76099.84;5011260;28;19924;-66
2022/05/31 09:59:45;;;;;;;;;;;;;;;-142.75;61.20;76121.50;5010938;28;20009;-65
2022/05/31 10:02:28;;;;;;;;;;;;;;;-142.75;64.73;76040.81;5011235;28;19939;-66
2022/05/31 10:05:12;;;;;;;;;;;;;;;-142.75;60.40;75995.53;5011141;28;19921;-66
2022/05/31 10:07:38;;;;;;;;;;;;;;;-142.75;60.10;75966.00;5011100;28;19957;-66
2022/05/31 10:10:07;;;;;;;;;;;;;;;-142.75;57.51;75967.97;5014326;28;19980;-65
2022/05/31 10:12:34;;;;;;;;;;;;;;;-142.75;57.31;76042.78;5015121;28;20287;-65
2022/05/31 10:15:03;;;;;;;;;;;;;;;-142.75;60.06;76066.41;5015053;28;19964;-65
2022/05/31 10:17:33;;;;;;;;;;;;;;;-142.75;62.20;76117.56;5014590;28;19964;-65
2022/05/31 10:20:07;;;;;;;;;;;;;;;-142.75;60.37;76162.84;5014535;28;20420;-64
2022/05/31 10:22:32;;;;;;;;;;;;;;;-142.75;60.96;76149.06;5032119;28;20390;-65
2022/05/31 10:24:57;;;;;;;;;;;;;;;-142.75;62.49;76158.91;5034670;28;19956;-66
2022/05/31 10:27:26;;;;;;;;;;;;;;;-142.75;61.92;76162.84;5034507;28;19963;-65
2022/05/31 10:29:53;;;;;;;;;;;;;;;-142.75;63.71;76158.91;5034164;28;19924;-65
2022/05/31 10:32:37;;;;;;;;;;;;;;;-142.75;61.39;76162.84;5034376;28;19971;-66
2022/05/31 10:35:12;;;;;;;;;;;;;;;-142.75;62.67;76151.03;5034379;28;19921;-65
2022/05/31 10:37:46;;;;;;;;;;;;;;;-142.75;59.24;76164.81;5034129;28;20298;-65
2022/05/31 10:40:16;;;;;;;;;;;;;;;-142.75;63.66;76147.09;5034223;28;19923;-65
2022/05/31 10:42:44;;;;;;;;;;;;;;;-142.75;60.09;76117.56;5034312;28;20371;-65
2022/05/31 10:45:19;;;;;;;;;;;;;;;-142.75;60.13;76066.41;5034072;28;19917;-65
2022/05/31 10:47:45;;;;;;;;;;;;;;;-142.75;60.07;76093.94;5033995;28;19924;-66
2022/05/31 10:50:10;;;;;;;;;;;;;;;-142.75;62.71;76133.31;5034034;28;19916;-65
2022/05/31 10:52:40;;;;;;;;;;;;;;;-142.75;60.84;76156.94;5034067;28;20379;-65
2022/05/31 10:55:08;;;;;;;;;;;;;;;-142.75;62.54;76184.50;5034100;28;20003;-65
2022/05/31 10:57:52;;;;;;;;;;;;;;;-142.75;61.87;76196.31;5033694;28;19917;-65
2022/05/31 11:00:20;;;;;;;;;;;;;;;-142.75;61.90;76190.41;5033878;28;20379;-65
2022/05/31 11:02:51;;;;;;;;;;;;;;;-142.75;61.32;76176.63;5033865;28;19928;-65
2022/05/31 11:05:19;;;;;;;;;;;;;;;-142.75;61.06;76178.59;5033827;28;20310;-65
2022/05/31 11:11:28;;;;;;;;;;;;;;;-142.75;65.08;76170.72;5034193;28;19924;-65
2022/05/31 11:14:00;;;;;;;;;;;;;;;-142.75;69.17;76160.88;4972744;28;19918;-65
2022/05/31 11:16:31;;;;;;;;;;;;;;;-142.75;62.67;76141.19;5030853;28;20282;-65
2022/05/31 11:19:04;;;;;;;;;;;;;;;-142.75;57.65;76139.22;5033396;28;19921;-64
2022/05/31 11:21:38;;;;;;;;;;;;;;;-142.75;67.59;76135.28;5032463;28;19917;-65
2022/05/31 11:24:14;;;;;;;;;;;;;;;-142.75;59.88;76121.50;5033441;28;20038;-65
2022/05/31 11:26:50;;;;;;;;;;;;;;;-142.75;59.80;76078.19;5033364;28;19971;-66
2022/05/31 11:29:31;;;;;;;;;;;;;;;-142.75;59.21;76005.38;5033195;28;19932;-65
2022/05/31 11:32:03;;;;;;;;;;;;;;;-142.75;54.58;75971.91;5033378;28;19917;-66
2022/05/31 11:34:48;;;;;;;;;;;;;;;-142.75;60.18;75997.50;5033298;28;19917;-67
2022/05/31 11:37:22;;;;;;;;;;;;;;;-142.75;55.63;76003.41;5033030;28;19917;-65
2022/05/31 11:39:47;;;;;;;;;;;;;;;-142.75;56.34;76021.13;5033138;28;19928;-65
2022/05/31 11:42:29;;;;;;;;;;;;;;;-142.75;60.78;76058.53;5033198;28;20311;-65
2022/05/31 11:45:07;;;;;;;;;;;;;;;-142.75;64.23;76093.94;5033082;28;20007;-66
2022/05/31 11:47:48;;;;;;;;;;;;;;;-142.75;70.16;76121.50;5032907;28;19928;-66
2022/05/31 11:50:26;;;;;;;;;;;;;;;-142.75;72.08;76164.81;5032983;28;20007;-65
2022/05/31 11:53:03;;;;;;;;;;;;;;;-142.75;69.99;76137.25;5033038;28;19917;-65
2022/05/31 11:55:46;;;;;;;;;;;;;;;-142.75;73.10;76156.94;5032856;28;19925;-65
2022/05/31 11:58:29;;;;;;;;;;;;;;;-142.75;74.17;76172.69;5015436;28;19922;-65
2022/05/31 12:01:07;;;;;;;;;;;;;;;-142.75;84.78;76192.38;5013234;28;19918;-65
2022/05/31 12:03:38;;;;;;;;;;;;;;;-142.75;87.43;76196.31;5013062;28;19921;-65
2022/05/31 12:06:07;;;;;;;;;;;;;;;-142.75;81.20;76194.34;5012822;28;19972;-66
2022/05/31 12:08:41;;;;;;;;;;;;;;;-142.75;79.34;76217.94;5012543;28;19978;-66
2022/05/31 12:11:17;;;;;;;;;;;;;;;-142.75;77.11;76206.13;5012949;28;19971;-65
2022/05/31 12:13:44;;;;;;;;;;;;;;;-142.75;77.16;76200.25;5012999;28;20011;-65
2022/05/31 12:16:10;;;;;;;;;;;;;;;-142.75;79.72;76192.38;5012579;28;20009;-65
2022/05/31 12:18:35;;;;;;;;;;;;;;;-142.75;80.50;76188.44;5049749;23;20033;-69
2022/05/31 12:21:07;;;;;;;;;;;;;;;-142.75;78.15;76180.56;5043610;28;19924;-68
2022/05/31 12:23:32;;;;;;;;;;;;;;;-142.75;76.42;76182.53;5052454;28;19917;-70
2022/05/31 12:25:58;;;;;;;;;;;;;;;-142.75;77.72;76194.34;5052392;28;20011;-68
2022/05/31 12:28:30;;;;;;;;;;;;;;;-142.75;72.45;76192.38;5051832;28;19921;-70
2022/05/31 12:31:16;;;;;;;;;;;;;;;-142.75;70.48;76202.19;5052044;28;19924;-70
2022/05/31 12:33:47;;;;;;;;;;;;;;;-142.75;78.04;76208.09;5045011;28;20436;-70
2022/05/31 12:36:18;;;;;;;;;;;;;;;-142.75;80.85;76215.97;5052287;28;19948;-70
2022/05/31 12:38:52;;;;;;;;;;;;;;;-142.75;71.13;76227.78;5051734;28;20367;-70
2022/05/31 12:41:43;;;;;;;;;;;;;;;-142.75;72.64;76235.66;5052002;28;19935;-70
2022/05/31 12:44:29;;;;;;;;;;;;;;;-142.75;72.05;76227.78;5049871;28;19982;-70
2022/05/31 12:46:55;;;;;;;;;;;;;;;-142.75;71.05;76227.78;5051723;28;19924;-70
2022/05/31 12:49:26;;;;;;;;;;;;;;;-142.75;71.71;76223.84;5050320;28;19925;-70
2022/05/31 12:54:53;;;;;;;;;;;;;;;-142.75;76.42;76271.09;5032772;28;20027;-70
2022/05/31 12:57:20;;;;;;;;;;;;;;;-142.75;75.39;76269.13;5032201;28;19924;-70